Ana Sayfa
METAR-TAF:

METAR-TAF

Havaalanları :

Linden, New Jersey, Amerika Birleşik Devletleri

Enlem: 40-37-03N, Boylam: 074-14-40W, yükseklik: 7 m

Güncel hava durumu gözlemi

Rapor saat 20:15 UTC de 18 dakika önce yapıldı.
Rüzgar kuzeydan 14 kt ve 19 kt'a kadar ani rüzgarlar, kuzeybatı ve kuzey/kuzeydoğu arasında değişken
Sıcaklık 21°C
Nem 26%
Basınç 1018 hPa
Görüş mesafesi: 16.1 km
7500 ft yükseklikte parçalı çok bulutlu

METAR: KLDJ 312015Z AUTO 35014G19KT 310V020 10SM BKN075 21/01 A3006 RMK AO2 T02110013

Saat: 16:33 (20:33 UTC)


TAF: eksik

4.000'den fazla havaalanı için hava durumu gözlemleri ve tahminleri (METAR ve TAF raporları).

Kullanılabilir istasyonlar harita üzerinde sarı ve kırmızı noktalarla gösterilir.

İstasyonun adını görmek için fareyi noktanın üzerinde gezdirin.

Sonrasında hava gözlem ve tahminlerini görmek için tıklayın.

Haritayı değiştirmek için: yaklaştırmak için siyah artı işaretli yeşil düğmeye ve uzaklaştırmak için de eksi işaretli düğmeye hızla tıklayın; bitişik haritalar için yeşil okları kullanın.


METAR-TAF: